Time;durP1;ratioP1;P1;durP2;ratioP2;P2;SDS_P1;SDS_P2;PMS_P1;PMS_P2;Temp;Humidity;BMP_temperature;BMP_pressure;BME280_temperature;BME280_humidity;BME280_pressure;Samples;Min_cycle;Max_cycle;Signal;HPM_P1;HPM_P2
2022/12/16 00:01:26;;;;;;;22.60;10.73;;;;;;;-4.23;100.00;99526.16;5003921;28;20050;-70
2022/12/16 00:03:56;;;;;;;24.10;11.43;;;;;;;-4.20;100.00;99533.06;5000032;28;20056;-71
2022/12/16 00:06:30;;;;;;;22.38;10.45;;;;;;;-4.25;100.00;99521.00;4990028;28;20060;-70
2022/12/16 00:08:57;;;;;;;19.00;9.63;;;;;;;-4.24;100.00;99521.84;4997085;28;20077;-70
2022/12/16 00:11:24;;;;;;;21.58;9.80;;;;;;;-4.31;100.00;99513.25;5003387;28;20046;-69
2022/12/16 00:13:51;;;;;;;18.42;9.73;;;;;;;-4.16;100.00;99530.47;5003943;28;20296;-70
2022/12/16 00:16:20;;;;;;;19.67;8.98;;;;;;;-4.23;100.00;99518.41;5004057;28;20139;-70
2022/12/16 00:18:48;;;;;;;20.27;9.30;;;;;;;-4.14;100.00;99518.41;4996041;28;20518;-71
2022/12/16 00:21:17;;;;;;;18.48;9.20;;;;;;;-4.05;100.00;99515.78;5010743;28;20068;-71
2022/12/16 00:23:45;;;;;;;18.80;8.98;;;;;;;-4.02;100.00;99528.72;4997928;28;20046;-70
2022/12/16 00:26:12;;;;;;;20.20;8.88;;;;;;;-4.03;100.00;99528.72;5003478;28;20519;-70
2022/12/16 00:28:39;;;;;;;18.85;9.13;;;;;;;-3.99;100.00;99530.44;5002856;28;20060;-70
2022/12/16 00:31:06;;;;;;;16.95;8.35;;;;;;;-4.19;100.00;99496.00;4998371;28;20125;-70
2022/12/16 00:33:33;;;;;;;19.48;9.10;;;;;;;-4.06;100.00;99518.38;5007895;28;20076;-72
2022/12/16 00:36:01;;;;;;;17.33;8.05;;;;;;;-4.02;100.00;99526.13;5004272;28;20492;-72
2022/12/16 00:38:27;;;;;;;19.73;8.80;;;;;;;-4.00;100.00;99528.72;5001127;28;20149;-70
2022/12/16 00:40:54;;;;;;;16.17;8.32;;;;;;;-3.98;100.00;99533.03;5002247;28;20050;-70
2022/12/16 00:43:22;;;;;;;18.80;8.20;;;;;;;-3.98;100.00;99533.03;5007968;28;20131;-69
2022/12/16 00:45:48;;;;;;;15.82;7.95;;;;;;;-4.01;100.00;99522.69;5003659;28;20050;-70
2022/12/16 00:48:18;;;;;;;16.27;8.32;;;;;;;-4.00;100.00;99519.22;4997145;28;20101;-70
2022/12/16 00:50:54;;;;;;;13.68;7.95;;;;;;;-3.91;100.00;99521.78;4999983;28;20165;-70
2022/12/16 00:53:22;;;;;;;17.88;7.97;;;;;;;-3.92;100.00;99512.28;4996832;28;20058;-71
2022/12/16 00:55:49;;;;;;;15.68;7.80;;;;;;;-3.90;100.00;99520.06;5000845;28;20042;-72
2022/12/16 00:58:16;;;;;;;18.02;7.78;;;;;;;-3.94;100.00;99513.19;4987902;28;20201;-70
2022/12/16 01:00:43;;;;;;;14.43;7.30;;;;;;;-4.06;100.00;99489.94;5001285;28;20513;-70
2022/12/16 01:03:09;;;;;;;16.73;7.68;;;;;;;-4.06;100.00;99492.53;4996430;28;20061;-72
2022/12/16 01:05:42;;;;;;;15.18;7.25;;;;;;;-3.91;100.00;99513.16;5020541;28;20053;-70
2022/12/16 01:08:08;;;;;;;15.60;7.80;;;;;;;-3.93;100.00;99528.69;4994081;28;20100;-72
2022/12/16 01:10:35;;;;;;;15.00;7.53;;;;;;;-3.92;100.00;99533.00;5000410;28;20053;-70
2022/12/16 01:13:03;;;;;;;17.80;7.75;;;;;;;-4.03;100.00;99508.88;4993327;28;20062;-71
2022/12/16 01:15:29;;;;;;;13.60;6.63;;;;;;;-3.93;100.00;99526.09;5001765;28;20093;-70
2022/12/16 01:17:56;;;;;;;14.43;6.88;;;;;;;-3.93;100.00;99530.41;4999208;28;20068;-68
2022/12/16 01:20:23;;;;;;;15.52;7.10;;;;;;;-3.93;100.00;99528.69;5005323;28;20115;-71
2022/12/16 01:22:49;;;;;;;16.70;6.60;;;;;;;-3.84;100.00;99543.31;5002782;28;20132;-68
2022/12/16 01:25:16;;;;;;;13.77;6.88;;;;;;;-3.88;100.00;99539.03;4997457;28;20049;-70
2022/12/16 01:27:43;;;;;;;14.20;7.22;;;;;;;-3.89;100.00;99545.91;4996410;28;20174;-69
2022/12/16 01:30:10;;;;;;;15.52;7.53;;;;;;;-3.91;100.00;99545.06;5001138;28;20383;-69
2022/12/16 01:32:36;;;;;;;16.77;6.88;;;;;;;-3.92;100.00;99553.69;5001866;28;20137;-70
2022/12/16 01:35:06;;;;;;;15.63;7.05;;;;;;;-3.97;100.00;99552.84;5002900;28;20046;-71
2022/12/16 01:37:53;;;;;;;10.20;5.30;;;;;;;-3.96;100.00;99570.09;4998296;28;20515;-70
2022/12/16 01:40:22;;;;;;;17.48;7.05;;;;;;;-4.21;100.00;99529.59;5003218;28;20057;-69
2022/12/16 01:42:49;;;;;;;15.93;7.15;;;;;;;-3.96;100.00;99572.69;4998045;28;20054;-69
2022/12/16 01:45:28;;;;;;;16.05;7.32;;;;;;;-3.98;100.00;99583.88;5001502;28;20057;-70
2022/12/16 01:47:58;;;;;;;16.38;6.57;;;;;;;-3.97;100.00;99575.25;4998294;28;20061;-70
2022/12/16 01:50:25;;;;;;;16.60;7.13;;;;;;;-3.93;100.00;99577.81;4994816;28;20140;-70
2022/12/16 01:52:56;;;;;;;13.73;6.88;;;;;;;-4.06;100.00;99563.19;4998689;28;20379;-68
2022/12/16 01:55:47;;;;;;;17.98;7.55;;;;;;;-4.14;100.00;99559.78;5003338;28;20459;-70
2022/12/16 01:58:20;;;;;;;15.75;7.57;;;;;;;-3.97;100.00;99586.47;4991676;28;20050;-72
2022/12/16 02:00:47;;;;;;;13.60;6.70;;;;;;;-4.14;100.00;99556.31;5002520;28;20563;-68
2022/12/16 02:03:15;;;;;;;14.60;6.97;;;;;;;-3.99;100.00;99585.59;4997735;28;20077;-71
2022/12/16 02:05:43;;;;;;;13.48;6.68;;;;;;;-3.97;100.00;99593.38;4997154;28;20057;-70
2022/12/16 02:08:18;;;;;;;12.85;6.80;;;;;;;-4.03;100.00;99581.28;4994795;28;20050;-71
2022/12/16 02:10:58;;;;;;;14.85;7.68;;;;;;;-3.97;100.00;99593.38;4999814;28;20047;-71
2022/12/16 02:13:58;;;;;;;14.75;7.38;;;;;;;-3.94;100.00;99594.22;4998020;28;20157;-68
2022/12/16 02:16:36;;;;;;;13.45;5.90;;;;;;;-3.98;100.00;99589.91;4999369;28;20049;-70
2022/12/16 02:19:09;;;;;;;17.13;7.40;;;;;;;-3.98;100.00;99587.31;4992075;28;20601;-68
2022/12/16 02:22:14;;;;;;;13.50;7.40;;;;;;;-4.00;100.00;99593.34;4996374;28;20069;-67
2022/12/16 02:24:59;;;;;;;14.60;7.30;;;;;;;-4.04;100.00;99587.31;4999617;28;20398;-69
2022/12/16 02:28:10;;;;;;;13.63;7.18;;;;;;;-3.95;100.00;99589.06;4993586;28;20145;-72
2022/12/16 02:30:51;;;;;;;14.68;7.00;;;;;;;-3.94;100.00;99593.38;4997889;28;20454;-70
2022/12/16 02:34:11;;;;;;;18.70;7.78;;;;;;;-3.94;100.00;99589.06;4998019;28;20305;-69
2022/12/16 02:37:00;;;;;;;14.75;7.75;;;;;;;-3.95;100.00;99589.91;4939276;28;20125;-71
2022/12/16 02:39:51;;;;;;;13.98;7.05;;;;;;;-3.92;100.00;99592.47;4936159;28;20061;-70
2022/12/16 02:42:36;;;;;;;15.32;6.88;;;;;;;-3.95;100.00;99584.75;4994750;28;20066;-70
2022/12/16 02:45:09;;;;;;;16.27;7.28;;;;;;;-3.92;100.00;99582.13;5004730;28;20052;-70
2022/12/16 02:47:38;;;;;;;13.95;7.05;;;;;;;-3.96;100.00;99588.19;4998432;28;20061;-71
2022/12/16 02:50:24;;;;;;;15.65;7.40;;;;;;;-3.99;100.00;99585.59;4999902;28;20083;-69
2022/12/16 02:52:55;;;;;;;14.00;6.75;;;;;;;-4.04;100.00;99583.88;4999421;28;20524;-69
2022/12/16 02:55:23;;;;;;;;;;;;;;;-3.99;100.00;99589.91;5001361;28;20387;-72
2022/12/16 02:58:22;;;;;;;14.25;6.57;;;;;;;-3.99;100.00;99585.59;4991195;28;19921;-71
2022/12/16 03:01:13;;;;;;;14.07;6.80;;;;;;;-4.04;100.00;99584.75;4997503;28;20046;-70
2022/12/16 03:04:01;;;;;;;14.60;6.75;;;;;;;-4.05;100.00;99592.50;5004083;28;20141;-70
2022/12/16 03:06:32;;;;;;;13.73;6.75;;;;;;;-4.09;100.00;99583.88;4993261;28;20141;-71
2022/12/16 03:09:01;;;;;;;13.82;7.00;;;;;;;-4.25;100.00;99553.75;4977588;28;20066;-68
2022/12/16 03:11:30;;;;;;;13.57;6.43;;;;;;;-4.14;100.00;99597.69;4993713;28;20049;-70
2022/12/16 03:13:58;;;;;;;14.00;6.78;;;;;;;-4.22;100.00;99584.75;4999115;28;20050;-70
2022/12/16 03:16:31;;;;;;;13.80;6.40;;;;;;;-4.21;100.00;99601.97;5000137;28;20045;-71
2022/12/16 03:19:05;;;;;;;14.90;6.47;;;;;;;-4.24;100.00;99592.50;4991922;28;20057;-70
2022/12/16 03:21:45;;;;;;;15.18;6.78;;;;;;;-4.16;100.00;99589.06;5000323;28;20102;-71
2022/12/16 03:24:13;;;;;;;16.05;5.28;;;;;;;-4.13;100.00;99589.06;5005372;28;20054;-70
2022/12/16 03:27:01;;;;;;;13.27;6.20;;;;;;;-4.04;100.00;99594.22;4999819;28;20053;-71
2022/12/16 03:29:49;;;;;;;12.10;6.22;;;;;;;-4.10;100.00;99582.19;4992786;28;20571;-70
2022/12/16 03:32:41;;;;;;;13.55;6.18;;;;;;;-4.08;100.00;99597.66;4998962;28;20049;-70
2022/12/16 03:35:32;;;;;;;11.18;6.32;;;;;;;-4.13;100.00;99594.25;5000768;28;20049;-70
2022/12/16 03:38:00;;;;;;;12.07;5.85;;;;;;;-4.20;100.00;99598.53;5001413;28;20070;-72
2022/12/16 03:40:28;;;;;;;13.70;5.78;;;;;;;-4.24;100.00;99596.81;5000971;28;20042;-70
2022/12/16 03:42:56;;;;;;;12.43;5.65;;;;;;;-4.43;100.00;99564.97;5001401;28;20084;-69
2022/12/16 03:45:26;;;;;;;10.75;6.15;;;;;;;-4.27;100.00;99597.69;5007915;28;20042;-70
2022/12/16 03:47:55;;;;;;;;;;;;;;;-4.28;100.00;99605.44;5001111;28;20066;-71
2022/12/16 03:50:30;;;;;;;9.90;5.30;;;;;;;-4.32;100.00;99603.72;4998672;28;19925;-70
2022/12/16 03:52:57;;;;;;;11.95;5.53;;;;;;;-4.30;100.00;99610.63;5002086;28;20053;-69
2022/12/16 03:55:23;;;;;;;13.20;5.15;;;;;;;-4.28;100.00;99618.38;5006812;28;20049;-69
2022/12/16 03:57:50;;;;;;;8.82;5.15;;;;;;;-4.30;100.00;99613.19;5001338;28;20375;-71
2022/12/16 04:00:20;;;;;;;11.65;5.03;;;;;;;-4.28;100.00;99610.63;4997639;28;20077;-70
2022/12/16 04:02:46;;;;;;;13.98;6.15;;;;;;;-4.44;100.00;99588.22;5005258;28;20068;-70
2022/12/16 04:05:13;;;;;;;11.38;5.18;;;;;;;-4.33;100.00;99613.19;5004705;28;20458;-70
2022/12/16 04:07:39;;;;;;;11.27;5.65;;;;;;;-4.30;100.00;99607.16;4995760;28;20403;-70
2022/12/16 04:10:07;;;;;;;11.40;5.70;;;;;;;-4.28;100.00;99618.38;4992454;28;20054;-70
2022/12/16 04:27:23;;;;;;;10.90;5.05;;;;;;;-4.16;100.00;99626.13;4999297;28;20429;-70
2022/12/16 04:29:23;;;;;;;10.13;4.82;;;;;;;-4.14;100.00;99628.72;4994823;28;20046;-70
2022/12/16 04:31:51;;;;;;;9.13;4.80;;;;;;;-4.15;100.00;99634.75;4996203;28;20050;-72
2022/12/16 04:34:24;;;;;;;11.38;5.28;;;;;;;-4.21;100.00;99630.41;4996936;28;20061;-72
